x

Buoy I01 - Eastern Maine Shelf (44034) Wave Buoy

10:04am - Sat 21st Jan 2017 All times are EST. -5 hours from GMT.

  • Sig Wave height 3.6ft
  • Peak Period 11s
  • Wind
    7mph, 9mph gusts
  • Sea Temp 44°f
  • Air Temp 40°f
  • Sea Pressure 1009.3mb
  • Buoy I01 - Eastern Maine Shelf
  • Buoy I01 - Eastern Maine Shelf

More Historic Weather Station data

Upgrade to MSW Pro to gain access to the past 30 days of data for over 8000 Wavebouys and Weather Stations around the globe.

Join Pro

Comparision Forecast

View Surf forecast
   
Sat 01/21 10:04am 3.5ft 11s 7 9 mph 1009.3mb 44f 40f
9:04am 1.6ft 4s 9 11 mph 1009.6mb 44f 40f
8:04am 4ft 11s 11
mph
1009.4mb 45f 41f
7:04am 4.5ft 11s 16 18 mph 1009.6mb 45f 41f
6:04am 4.5ft 11s 13 18 mph 1010.1mb 45f 41f
5:04am  -   -  11 16 mph 1010.5mb 45f 41f
4:04am 4.5ft 11s 4 7 mph 1011mb 45f 39f
3:04am 3ft 11s 4 7 mph 1011.6mb 45f 39f
2:04am 3.5ft 11s 7 11 mph 1012.1mb 45f 39f
1:04am 2.5ft 11s 11 13 mph 1012.4mb 45f 40f
12:04am 2.5ft 11s 9 11 mph 1012.4mb 45f 40f
Fri 01/20 11:04pm 3.5ft 11s 4 7 mph 1013.2mb 45f 39f
10:04pm 3ft 11s 2 4 mph 1013.7mb 45f 38f
9:04pm 3ft 11s 2 7 mph 1014mb 45f 38f
8:04pm 3.5ft 11s 2 4 mph 1014mb 45f 38f
7:04pm 3.5ft 11s 4 9 mph 1014.1mb 45f 38f
6:04pm 3.5ft 11s 4 9 mph 1014.3mb 45f 38f
5:04pm 3ft 11s 7 11 mph 1014mb 45f 38f
4:04pm 3ft 11s 2 4 mph 1014.1mb 45f 38f
3:04pm 3.5ft 11s 2 4 mph 1014.3mb 45f 38f
2:04pm 3ft 11s 2 4 mph 1014.3mb 45f 38f
1:04pm 3.5ft 11s 7
mph
1014.4mb 45f 38f
12:04pm 3.5ft 11s 7 11 mph 1014.6mb 45f 37f
11:04am 4ft 11s 9 13 mph 1015.7mb 45f 37f
10:04am 3.5ft 11s 11 13 mph 1016.2mb 45f 37f
9:04am  -   -  11 13 mph 1015.9mb 45f 37f
8:04am 5ft 11s 11 16 mph 1016.1mb 45f 37f
7:04am 5.5ft 11s 11 13 mph 1015.4mb 45f 37f
6:04am 4.5ft 11s 11 13 mph 1014.3mb 45f 37f
5:04am  -   -  16 18 mph 1013.4mb 45f 38f
4:04am 5.5ft 11s 18 22 mph 1013mb 44f 38f
3:04am 5ft 11s 20 22 mph 1013.4mb 44f 38f
2:04am 6ft 11s 16 20 mph 1014.3mb 44f 37f
1:04am 5ft 11s 18 22 mph 1014.6mb 44f 38f
12:04am 5.5ft 11s 16 18 mph 1014.5mb 44f 38f
Thu 01/19 11:04pm  -   -  16 20 mph 1014.4mb 44f 38f
10:04pm 5ft 11s 13 18 mph 1014.5mb 44f 38f
9:04pm 5ft 11s 18 20 mph 1014mb 44f 39f
8:04pm 5ft 11s 13 16 mph 1013.7mb 44f 39f
7:04pm 5.5ft 11s 11 13 mph 1013.3mb 44f 39f
6:04pm 5ft 8s 9 11 mph 1012.7mb 44f 39f
5:04pm 5ft 8s 4 7 mph 1012.4mb 43f 38f
4:04pm 4.5ft 8s 9 11 mph 1012.1mb 43f 37f
3:04pm 4ft 8s 13 16 mph 1011.8mb 43f 37f
2:04pm 4ft 8s 13 16 mph 1011.9mb 43f 37f
1:04pm 4.5ft 8s 13 18 mph 1012mb 43f 39f
12:04pm 3.5ft 8s 11 13 mph 1012.4mb 44f 40f
11:04am 4.5ft 8s 13
mph
1013.5mb 43f 39f
10:04am 4ft 8s 13 16 mph 1014.6mb 43f 39f
9:04am 4.5ft 8s 9 11 mph 1015mb 43f 38f
8:04am 4.5ft 8s 9 11 mph 1014.9mb 43f 37f
7:04am 4.5ft 8s 9 11 mph 1014.8mb 43f 36f
6:04am 4.5ft 6s 9 11 mph 1014.6mb 43f 36f
5:04am 4.5ft 6s 9 11 mph 1014.8mb 43f 35f
4:04am 4.5ft 8s 7 9 mph 1014.9mb 44f 36f
3:04am 5ft 8s 7 11 mph 1015.1mb 44f 36f
2:04am 4.5ft 8s 7 9 mph 1015.5mb 44f 36f
1:04am 4.5ft 6s 9 13 mph 1016mb 44f 36f
12:04am 4.5ft 6s 9 11 mph 1016.2mb 43f 36f
Wed 01/18 11:04pm 4ft 5s 9 11 mph 1016.7mb 43f 35f
10:04pm 4.5ft 6s 9 13 mph 1017.6mb 43f 35f
9:04pm 4ft 6s 11 13 mph 1018.1mb 44f 35f
8:04pm 4.5ft 6s 11 16 mph 1018.4mb 44f 34f
7:04pm 5.5ft 5s 13 18 mph 1018.8mb 43f 34f
6:04pm 5.5ft 5s 16 20 mph 1018.6mb 44f 34f
5:04pm 6ft 6s 18 22 mph 1018.3mb 44f 34f
4:04pm 7ft 8s 18 22 mph 1018.1mb 45f 34f
3:04pm 6ft 8s 18 22 mph 1018.4mb 45f 33f
2:04pm 7ft 6s 20 27 mph 1018mb 45f 33f
1:04pm 6.5ft 6s 20 27 mph 1018.4mb 45f 33f
12:04pm 7ft 6s 20 25 mph 1018.5mb 45f 33f
11:04am 7ft 6s 20 25 mph 1019.4mb 44f 33f
10:04am 7ft 6s 22 27 mph 1020.3mb 44f 32f
9:04am 7.5ft 6s 25 29 mph 1020.8mb 44f 32f
8:04am 7ft 6s 22 27 mph 1021.2mb 45f 32f
7:04am 6ft 6s 22 27 mph 1020.7mb 44f 32f
6:04am 5ft 5s 25 31 mph 1020.7mb 45f 32f
5:04am 5ft 5s 22 29 mph 1020.7mb 45f 32f
4:04am 4.5ft 5s 22 25 mph 1021mb 45f 33f
3:04am 4ft 5s 18 22 mph 1021.4mb 45f 34f
2:04am 3.5ft 5s 20 25 mph 1022mb 45f 34f
1:04am 3.5ft 5s 20 25 mph 1022.3mb 45f 34f
12:04am 3.5ft 5s 18 22 mph 1022.7mb 45f 35f
Tue 01/17 11:04pm 3ft 5s 18 22 mph 1023.2mb 45f 35f
10:04pm 3ft 5s 18 20 mph 1024mb 45f 33f
9:04pm 2.5ft 4s 18 22 mph 1024mb 45f 34f
8:04pm 2.5ft 4s 16 20 mph 1024.4mb 45f 33f
7:04pm 2ft 3s 16 20 mph 1024.5mb 45f 34f
6:04pm 2.5ft 6s 13 18 mph 1024.7mb 45f 35f
5:04pm 2.5ft 4s 16 18 mph 1024.2mb 45f 35f